Time;durP1;ratioP1;P1;durP2;ratioP2;P2;SDS_P1;SDS_P2;PMS_P1;PMS_P2;Temp;Humidity;BMP_temperature;BMP_pressure;BME280_temperature;BME280_humidity;BME280_pressure;Samples;Min_cycle;Max_cycle;Signal;HPM_P1;HPM_P2
2023/03/14 00:02:20;;;;;;;3.03;1.30;;;13.90;99.90;;;;;;5053435;28;20195;-66
2023/03/14 00:04:45;;;;;;;2.50;1.33;;;13.90;99.90;;;;;;5052326;28;20183;-66
2023/03/14 00:07:12;;;;;;;1.70;1.30;;;13.90;99.90;;;;;;5052445;28;20937;-66
2023/03/14 00:09:38;;;;;;;4.50;1.63;;;13.90;99.90;;;;;;5052954;28;20183;-66
2023/03/14 00:12:04;;;;;;;2.03;1.30;;;14.00;99.90;;;;;;5055428;28;20461;-65
2023/03/14 00:14:31;;;;;;;4.00;1.43;;;14.00;99.90;;;;;;5053176;28;20186;-66
2023/03/14 00:16:56;;;;;;;1.87;1.43;;;14.10;99.90;;;;;;5055610;28;20539;-66
2023/03/14 00:19:22;;;;;;;1.63;1.20;;;14.00;99.90;;;;;;5050793;28;20976;-66
2023/03/14 00:21:47;;;;;;;5.23;1.40;;;14.00;99.90;;;;;;5056226;28;20563;-66
2023/03/14 00:24:13;;;;;;;1.80;1.30;;;14.00;99.90;;;;;;5054049;28;20175;-65
2023/03/14 00:26:38;;;;;;;2.37;1.30;;;13.90;99.90;;;;;;5056973;28;20333;-66
2023/03/14 00:29:04;;;;;;;2.70;1.63;;;14.00;99.90;;;;;;5054799;28;20598;-66
2023/03/14 00:31:30;;;;;;;3.10;1.40;;;14.00;99.90;;;;;;5054642;28;20749;-66
2023/03/14 00:33:55;;;;;;;2.50;1.57;;;14.00;99.90;;;;;;5054664;28;20600;-66
2023/03/14 00:36:21;;;;;;;1.90;1.60;;;14.00;99.90;;;;;;5051916;28;20207;-66
2023/03/14 00:38:50;;;;;;;2.53;1.20;;;13.90;99.90;;;;;;5052430;28;20179;-65
2023/03/14 00:41:18;;;;;;;2.13;1.20;;;13.90;99.90;;;;;;5050107;28;20821;-66
2023/03/14 00:43:44;;;;;;;2.70;1.13;;;13.90;99.90;;;;;;5058347;28;20430;-65
2023/03/14 00:46:10;;;;;;;1.90;1.30;;;14.00;99.90;;;;;;5053456;28;20475;-65
2023/03/14 00:48:36;;;;;;;1.80;1.20;;;13.90;99.90;;;;;;5054484;28;20847;-66
2023/03/14 00:51:04;;;;;;;2.37;1.70;;;13.90;99.90;;;;;;5050054;28;20176;-65
2023/03/14 00:53:29;;;;;;;2.90;1.23;;;14.00;99.90;;;;;;5052261;28;20422;-65
2023/03/14 00:55:55;;;;;;;1.80;1.50;;;14.00;99.90;;;;;;5051674;28;20479;-66
2023/03/14 00:58:20;;;;;;;3.37;1.40;;;14.00;99.90;;;;;;5053938;28;20597;-65
2023/03/14 01:00:46;;;;;;;1.67;1.23;;;13.90;99.90;;;;;;5055166;28;20270;-65
2023/03/14 01:03:13;;;;;;;2.00;1.43;;;13.90;99.90;;;;;;5049101;28;20187;-65
2023/03/14 01:05:39;;;;;;;2.17;1.20;;;13.80;99.90;;;;;;5051396;28;20205;-65
2023/03/14 01:08:06;;;;;;;1.70;1.30;;;13.80;99.90;;;;;;5051106;28;20443;-65
2023/03/14 01:10:32;;;;;;;2.10;1.40;;;13.70;99.90;;;;;;5052772;28;20429;-66
2023/03/14 01:12:58;;;;;;;1.70;1.13;;;13.80;99.90;;;;;;5057044;28;20422;-66
2023/03/14 01:15:24;;;;;;;2.20;1.33;;;13.70;99.90;;;;;;5054341;28;20176;-66
2023/03/14 01:17:49;;;;;;;1.70;1.20;;;13.70;99.90;;;;;;5056310;28;20693;-66
2023/03/14 01:20:15;;;;;;;1.70;1.20;;;13.70;99.90;;;;;;5053411;28;20186;-66
2023/03/14 01:22:42;;;;;;;1.93;1.43;;;13.70;99.90;;;;;;5053285;28;20187;-65
2023/03/14 01:25:15;;;;;;;1.90;1.20;;;13.70;99.90;;;;;;5055687;28;20815;-65
2023/03/14 01:27:41;;;;;;;2.50;1.33;;;13.70;99.90;;;;;;5054864;28;20449;-66
2023/03/14 01:30:08;;;;;;;2.07;1.30;;;13.70;99.90;;;;;;5051823;28;20432;-65
2023/03/14 01:32:34;;;;;;;1.93;1.50;;;13.70;99.90;;;;;;5057619;28;20449;-65
2023/03/14 01:35:00;;;;;;;2.23;1.40;;;13.60;99.90;;;;;;5049113;28;20879;-66
2023/03/14 01:37:25;;;;;;;1.57;1.10;;;13.50;99.90;;;;;;5054463;28;20541;-65
2023/03/14 01:39:51;;;;;;;2.77;1.53;;;13.50;99.90;;;;;;5052558;28;20192;-65
2023/03/14 01:42:16;;;;;;;2.87;1.50;;;13.50;99.90;;;;;;5054026;28;20555;-66
2023/03/14 01:44:57;;;;;;;2.20;1.50;;;13.50;99.90;;;;;;5052961;28;20175;-65
2023/03/14 01:47:23;;;;;;;2.53;1.40;;;13.40;99.90;;;;;;5053326;28;20614;-66
2023/03/14 01:49:59;;;;;;;1.80;1.20;;;13.40;99.90;;;;;;5053379;28;20533;-66
2023/03/14 01:52:41;;;;;;;2.20;1.37;;;13.50;99.90;;;;;;5053437;28;20469;-65
2023/03/14 01:55:14;;;;;;;2.00;1.40;;;13.40;99.90;;;;;;5054725;28;20516;-66
2023/03/14 01:57:44;;;;;;;2.40;1.40;;;13.40;99.90;;;;;;5053103;28;20885;-66
2023/03/14 02:00:14;;;;;;;2.13;1.63;;;13.30;99.90;;;;;;5052364;28;21424;-65
2023/03/14 02:02:43;;;;;;;1.90;1.30;;;13.20;99.90;;;;;;5051124;28;20947;-65
2023/03/14 02:05:10;;;;;;;1.90;1.20;;;13.20;99.90;;;;;;5054511;28;20429;-65
2023/03/14 02:07:45;;;;;;;2.10;1.20;;;13.20;99.90;;;;;;5056221;28;20532;-65
2023/03/14 02:10:11;;;;;;;3.43;1.60;;;13.10;99.90;;;;;;5049330;28;20445;-66
2023/03/14 02:12:38;;;;;;;2.43;1.50;;;13.10;99.90;;;;;;5054395;28;20490;-66
2023/03/14 02:15:04;;;;;;;2.30;1.63;;;13.10;99.90;;;;;;5053049;28;20183;-65
2023/03/14 02:17:30;;;;;;;2.13;1.30;;;13.10;99.90;;;;;;5052669;28;20501;-65
2023/03/14 02:20:27;;;;;;;3.60;1.70;;;13.10;99.90;;;;;;5052123;28;20430;-65
2023/03/14 02:22:53;;;;;;;3.00;1.40;;;13.10;99.90;;;;;;5046700;28;20180;-65
2023/03/14 02:25:35;;;;;;;3.40;1.30;;;13.10;99.90;;;;;;5050849;28;21305;-65
2023/03/14 02:28:01;;;;;;;1.93;1.23;;;13.20;99.90;;;;;;5054827;28;20454;-65
2023/03/14 02:30:30;;;;;;;2.07;1.50;;;13.10;99.90;;;;;;5054821;28;20433;-65
2023/03/14 02:33:02;;;;;;;3.80;1.40;;;13.10;99.90;;;;;;5053234;28;20527;-65
2023/03/14 02:35:52;;;;;;;3.40;1.50;;;13.10;99.90;;;;;;5047632;28;21180;-65
2023/03/14 02:38:39;;;;;;;2.30;1.50;;;13.10;99.90;;;;;;5047322;28;20438;-65
2023/03/14 02:41:05;;;;;;;1.90;1.20;;;13.00;99.90;;;;;;5053741;28;20485;-65
2023/03/14 02:43:30;;;;;;;3.20;1.60;;;12.90;99.90;;;;;;5056877;28;20945;-65
2023/03/14 02:45:56;;;;;;;2.30;1.67;;;12.90;99.90;;;;;;5051892;28;20557;-65
2023/03/14 02:48:46;;;;;;;3.23;1.30;;;12.90;99.90;;;;;;5049407;28;20277;-65
2023/03/14 02:51:13;;;;;;;6.43;1.80;;;12.90;99.90;;;;;;5049997;28;20499;-65
2023/03/14 02:53:41;;;;;;;4.73;1.47;;;12.80;99.90;;;;;;5056549;28;20845;-65
2023/03/14 02:56:07;;;;;;;1.90;1.33;;;12.80;99.90;;;;;;5052992;28;20461;-66
2023/03/14 02:58:33;;;;;;;1.90;1.37;;;12.90;99.90;;;;;;5054462;28;20433;-65
2023/03/14 03:00:58;;;;;;;3.93;1.50;;;12.80;99.90;;;;;;5041049;28;20456;-66
2023/03/14 03:03:24;;;;;;;3.53;1.30;;;12.80;99.90;;;;;;5051481;28;20193;-65
2023/03/14 03:05:55;;;;;;;8.00;1.80;;;12.90;99.90;;;;;;5050704;28;20195;-65
2023/03/14 03:08:22;;;;;;;2.70;1.50;;;12.90;99.90;;;;;;5050107;28;20196;-65
2023/03/14 03:10:48;;;;;;;3.83;1.40;;;12.80;99.90;;;;;;5052899;28;20911;-65
2023/03/14 03:13:14;;;;;;;2.53;1.50;;;12.80;99.90;;;;;;5050806;28;20498;-65
2023/03/14 03:15:40;;;;;;;2.27;1.20;;;12.80;99.90;;;;;;5047083;28;20183;-65
2023/03/14 03:18:06;;;;;;;2.23;1.47;;;12.80;99.90;;;;;;5049852;28;20539;-66
2023/03/14 03:20:32;;;;;;;3.80;1.77;;;12.80;99.90;;;;;;5047464;28;20179;-65
2023/03/14 03:22:58;;;;;;;3.70;1.57;;;12.70;99.90;;;;;;5052199;28;20997;-65
2023/03/14 03:25:24;;;;;;;3.33;1.47;;;12.70;99.90;;;;;;5053935;28;20294;-65
2023/03/14 03:27:50;;;;;;;2.77;1.40;;;12.70;99.90;;;;;;5044661;28;20878;-65
2023/03/14 03:30:16;;;;;;;3.33;1.50;;;12.70;99.90;;;;;;5049076;28;20190;-65
2023/03/14 03:32:41;;;;;;;4.10;1.60;;;12.80;99.90;;;;;;5053947;28;20211;-65
2023/03/14 03:35:07;;;;;;;2.60;1.50;;;12.70;99.90;;;;;;5047615;28;20213;-65
2023/03/14 03:37:33;;;;;;;2.77;1.40;;;12.80;99.90;;;;;;5048868;28;20700;-65
2023/03/14 03:40:00;;;;;;;3.23;1.40;;;12.70;99.90;;;;;;5052419;28;20187;-65
2023/03/14 03:42:27;;;;;;;2.90;1.40;;;12.70;99.90;;;;;;5047365;28;20843;-66
2023/03/14 03:44:52;;;;;;;6.57;1.60;;;12.80;99.90;;;;;;5050654;28;20429;-65
2023/03/14 03:47:18;;;;;;;4.17;1.40;;;12.70;99.90;;;;;;5049430;28;20881;-66
2023/03/14 03:49:43;;;;;;;2.70;1.60;;;12.70;99.90;;;;;;5045523;28;20183;-66
2023/03/14 03:52:09;;;;;;;3.37;1.50;;;12.70;99.90;;;;;;5053812;28;20191;-66
2023/03/14 03:54:35;;;;;;;2.50;1.30;;;12.80;99.90;;;;;;5054557;28;20230;-66
2023/03/14 03:57:00;;;;;;;3.60;1.70;;;12.80;99.90;;;;;;5048333;28;20264;-66
2023/03/14 03:59:26;;;;;;;3.33;1.70;;;12.70;99.90;;;;;;5049876;28;20935;-67
2023/03/14 04:01:52;;;;;;;2.00;1.30;;;12.80;99.90;;;;;;5048295;28;20213;-67
2023/03/14 04:04:17;;;;;;;4.30;1.97;;;12.80;99.90;;;;;;5054177;28;20854;-66
2023/03/14 04:06:43;;;;;;;3.97;1.70;;;12.70;99.90;;;;;;5050268;28;20862;-66
2023/03/14 04:09:10;;;;;;;2.77;1.63;;;12.70;99.90;;;;;;5051238;28;20183;-66
2023/03/14 04:11:36;;;;;;;5.50;1.50;;;12.80;99.90;;;;;;5049998;28;20183;-67
2023/03/14 04:14:02;;;;;;;2.77;1.87;;;12.70;99.90;;;;;;5050106;28;20902;-66
2023/03/14 04:16:27;;;;;;;4.83;1.50;;;12.70;99.90;;;;;;5051987;28;20211;-67
2023/03/14 04:18:53;;;;;;;4.67;1.50;;;12.70;99.90;;;;;;5054466;28;20440;-66
2023/03/14 04:21:19;;;;;;;2.97;1.60;;;12.70;99.90;;;;;;5051739;28;20180;-66
2023/03/14 04:23:44;;;;;;;2.90;1.60;;;12.70;99.90;;;;;;5054693;28;20222;-66
2023/03/14 04:26:10;;;;;;;5.23;1.60;;;12.70;99.90;;;;;;5057561;28;21094;-66
2023/03/14 04:28:36;;;;;;;3.90;1.50;;;12.60;99.90;;;;;;5056448;28;20720;-66
2023/03/14 04:31:09;;;;;;;4.13;1.93;;;12.70;99.90;;;;;;5052965;28;20180;-66
2023/03/14 04:33:36;;;;;;;3.17;1.50;;;12.60;99.90;;;;;;5054794;28;20452;-66
2023/03/14 04:36:02;;;;;;;2.60;1.50;;;12.60;99.90;;;;;;5055496;28;20422;-66
2023/03/14 04:38:28;;;;;;;1.97;1.50;;;12.60;99.90;;;;;;5059765;28;20429;-66
2023/03/14 04:40:54;;;;;;;5.63;1.93;;;12.70;99.90;;;;;;5057881;28;21115;-66
2023/03/14 04:43:19;;;;;;;2.63;1.50;;;12.50;99.90;;;;;;5053011;28;20668;-66
2023/03/14 04:45:45;;;;;;;2.40;1.50;;;12.60;99.90;;;;;;5054230;28;20206;-66
2023/03/14 04:48:10;;;;;;;3.70;1.67;;;12.50;99.90;;;;;;5057011;28;20286;-66
2023/03/14 04:50:36;;;;;;;2.80;1.30;;;12.60;99.90;;;;;;5050093;28;20184;-67
2023/03/14 04:53:01;;;;;;;4.57;1.63;;;12.60;99.90;;;;;;5052962;28;20187;-66
2023/03/14 04:55:27;;;;;;;3.70;1.47;;;12.60;99.90;;;;;;5055145;28;20225;-67
2023/03/14 04:57:52;;;;;;;4.93;1.60;;;12.70;99.90;;;;;;5048900;28;20211;-67
2023/03/14 05:00:18;;;;;;;2.27;1.30;;;12.60;99.90;;;;;;5053426;28;20176;-67
2023/03/14 05:02:44;;;;;;;4.77;1.50;;;12.50;99.90;;;;;;5051471;28;20191;-67
2023/03/14 05:05:10;;;;;;;4.83;1.60;;;12.50;99.90;;;;;;5053354;28;20187;-67
2023/03/14 05:07:36;;;;;;;6.10;1.70;;;12.50;99.90;;;;;;5053806;28;20805;-64
2023/03/14 05:10:02;;;;;;;5.47;1.80;;;12.60;99.90;;;;;;5050305;28;20443;-67
2023/03/14 05:12:27;;;;;;;2.10;1.40;;;12.70;99.90;;;;;;5056014;28;20254;-67
2023/03/14 05:14:53;;;;;;;3.67;1.70;;;12.70;99.90;;;;;;5053626;28;20418;-66
2023/03/14 05:17:18;;;;;;;8.13;1.70;;;12.60;99.90;;;;;;5053891;28;20215;-66
2023/03/14 05:19:44;;;;;;;2.27;1.70;;;12.60;99.90;;;;;;5045644;28;20183;-67
2023/03/14 05:22:11;;;;;;;5.00;1.50;;;12.70;99.90;;;;;;5052765;28;21236;-66
2023/03/14 05:24:36;;;;;;;6.03;1.70;;;12.70;99.90;;;;;;5053152;28;20437;-66
2023/03/14 05:27:04;;;;;;;3.97;1.40;;;12.60;99.90;;;;;;5053265;28;20818;-66
2023/03/14 05:29:29;;;;;;;2.00;1.40;;;12.60;99.90;;;;;;5048381;28;20266;-66
2023/03/14 05:31:55;;;;;;;2.17;1.37;;;12.70;99.90;;;;;;5054259;28;20516;-66
2023/03/14 05:34:20;;;;;;;4.00;1.50;;;12.70;99.90;;;;;;5049358;28;20272;-66
2023/03/14 05:36:46;;;;;;;2.30;1.30;;;12.60;99.90;;;;;;5049506;28;20207;-66
2023/03/14 05:39:12;;;;;;;2.03;1.30;;;12.70;99.90;;;;;;5051862;28;20906;-66
2023/03/14 05:41:37;;;;;;;2.80;1.63;;;12.60;99.90;;;;;;5051599;28;20179;-66
2023/03/14 05:44:03;;;;;;;3.57;1.53;;;12.60;99.90;;;;;;5051319;28;20192;-66
2023/03/14 05:46:30;;;;;;;2.27;1.43;;;12.70;99.90;;;;;;5051521;28;20699;-66
2023/03/14 05:48:57;;;;;;;5.70;1.70;;;12.70;99.90;;;;;;5051320;28;20182;-66
2023/03/14 05:51:24;;;;;;;2.80;1.43;;;12.70;99.90;;;;;;5053548;28;20442;-66
2023/03/14 05:53:50;;;;;;;3.83;1.40;;;12.70;99.90;;;;;;5051227;28;20433;-65
2023/03/14 05:56:15;;;;;;;2.77;2.00;;;12.60;99.90;;;;;;5050726;28;20477;-66
2023/03/14 05:58:41;;;;;;;3.00;1.20;;;12.50;99.90;;;;;;5054349;28;20254;-66
2023/03/14 06:01:07;;;;;;;3.20;1.30;;;12.50;99.90;;;;;;5052638;28;20194;-66
2023/03/14 06:03:33;;;;;;;3.30;1.60;;;12.40;99.90;;;;;;5053201;28;20270;-66
2023/03/14 06:05:59;;;;;;;2.90;1.43;;;12.40;99.90;;;;;;5049226;28;21056;-66
2023/03/14 06:08:24;;;;;;;2.00;1.50;;;12.40;99.90;;;;;;5053820;28;20187;-66
2023/03/14 06:10:51;;;;;;;5.77;1.50;;;12.30;99.90;;;;;;5051621;28;20377;-66
2023/03/14 06:13:17;;;;;;;4.53;1.50;;;12.30;99.90;;;;;;5057259;28;20179;-65
2023/03/14 06:15:43;;;;;;;2.70;1.57;;;12.30;99.90;;;;;;5051485;28;20444;-66
2023/03/14 06:18:08;;;;;;;3.70;1.63;;;12.30;99.90;;;;;;5050648;28;20276;-66
2023/03/14 06:20:38;;;;;;;5.83;1.77;;;12.30;99.90;;;;;;5047974;28;20429;-66
2023/03/14 06:23:05;;;;;;;4.63;1.37;;;12.30;99.90;;;;;;5049360;28;20179;-66
2023/03/14 06:25:30;;;;;;;3.63;2.00;;;12.30;99.90;;;;;;5056598;28;20490;-66
2023/03/14 06:27:57;;;;;;;5.67;2.53;;;12.30;99.90;;;;;;5049414;28;20461;-66
2023/03/14 06:30:23;;;;;;;2.20;1.50;;;12.30;99.90;;;;;;5056982;28;20190;-66
2023/03/14 06:32:48;;;;;;;3.80;2.67;;;12.30;99.90;;;;;;5052741;28;20430;-65
2023/03/14 06:35:14;;;;;;;2.40;1.60;;;12.30;99.90;;;;;;5048429;28;20301;-65
2023/03/14 06:37:39;;;;;;;4.33;1.63;;;12.30;99.90;;;;;;5049603;28;20218;-65
2023/03/14 06:40:07;;;;;;;4.50;2.20;;;12.30;99.90;;;;;;5054588;28;20247;-65
2023/03/14 06:42:32;;;;;;;4.43;1.60;;;12.30;99.90;;;;;;5051644;28;20179;-66
2023/03/14 06:44:58;;;;;;;3.90;1.63;;;12.30;99.90;;;;;;5050553;28;20441;-65
2023/03/14 06:47:23;;;;;;;2.57;1.40;;;12.40;99.90;;;;;;5048650;28;20218;-65
2023/03/14 06:49:49;;;;;;;2.87;1.57;;;12.40;99.90;;;;;;5055819;28;20198;-65
2023/03/14 06:52:15;;;;;;;4.13;1.60;;;12.40;99.90;;;;;;5049513;28;20190;-65
2023/03/14 06:54:40;;;;;;;4.70;1.73;;;12.50;99.90;;;;;;5051353;28;20786;-65
2023/03/14 06:57:06;;;;;;;2.07;1.50;;;12.50;99.90;;;;;;5052811;28;20219;-65
2023/03/14 06:59:31;;;;;;;2.37;1.50;;;12.60;99.90;;;;;;5054771;28;20228;-65
2023/03/14 07:01:57;;;;;;;3.77;1.53;;;12.50;99.90;;;;;;5048937;28;20186;-65
2023/03/14 07:04:22;;;;;;;2.90;1.53;;;12.60;99.90;;;;;;5051438;28;20190;-65
2023/03/14 07:06:48;;;;;;;4.50;1.47;;;12.70;99.90;;;;;;5052170;28;20207;-65
2023/03/14 07:09:16;;;;;;;2.43;1.30;;;12.70;99.90;;;;;;5042003;28;20183;-65
2023/03/14 07:11:42;;;;;;;2.43;1.30;;;12.80;99.90;;;;;;5050857;28;20241;-65
2023/03/14 07:14:08;;;;;;;1.70;1.30;;;12.90;99.90;;;;;;5054677;28;20433;-65
2023/03/14 07:16:34;;;;;;;1.80;1.20;;;12.90;99.90;;;;;;5053890;28;20517;-65
2023/03/14 07:19:00;;;;;;;2.33;1.30;;;13.00;99.90;;;;;;5049314;28;20962;-66
2023/03/14 07:21:26;;;;;;;2.63;1.30;;;13.00;99.90;;;;;;5053363;28;20176;-65
2023/03/14 07:23:51;;;;;;;1.83;1.37;;;13.10;99.90;;;;;;5053599;28;20494;-65
2023/03/14 07:26:17;;;;;;;2.20;1.60;;;13.10;99.90;;;;;;5048374;28;20596;-65
2023/03/14 07:28:42;;;;;;;6.77;1.57;;;13.10;99.90;;;;;;5049094;28;20218;-65
2023/03/14 07:31:08;;;;;;;1.60;1.20;;;13.10;99.90;;;;;;5052748;28;20638;-65
2023/03/14 07:33:34;;;;;;;3.90;1.60;;;13.10;99.90;;;;;;5048964;28;20557;-65
2023/03/14 07:35:59;;;;;;;4.73;1.63;;;13.00;99.90;;;;;;5050379;28;20187;-65
2023/03/14 07:38:25;;;;;;;3.60;1.40;;;13.20;99.90;;;;;;5051379;28;20225;-66
2023/03/14 07:41:01;;;;;;;2.43;1.50;;;13.20;99.90;;;;;;5047544;28;20218;-65
2023/03/14 07:43:26;;;;;;;3.87;1.70;;;13.30;99.90;;;;;;5053981;28;20190;-66
2023/03/14 07:45:52;;;;;;;3.53;1.67;;;13.40;99.90;;;;;;5048173;28;20442;-66
2023/03/14 07:48:18;;;;;;;4.20;1.70;;;13.50;99.90;;;;;;5054059;28;20651;-65
2023/03/14 07:50:43;;;;;;;5.33;2.77;;;13.60;99.90;;;;;;5049337;28;20187;-66
2023/03/14 07:53:09;;;;;;;4.43;1.30;;;13.50;99.90;;;;;;5049394;28;20534;-66
2023/03/14 07:55:35;;;;;;;3.77;1.80;;;13.50;99.90;;;;;;5058105;28;20187;-64
2023/03/14 07:58:00;;;;;;;2.93;1.67;;;13.60;99.90;;;;;;5053244;28;20632;-65
2023/03/14 08:00:26;;;;;;;2.10;1.30;;;13.60;99.90;;;;;;5053594;28;20186;-65
2023/03/14 08:02:51;;;;;;;3.00;1.30;;;13.70;99.90;;;;;;5055101;28;20179;-65
2023/03/14 08:05:17;;;;;;;2.53;1.30;;;13.60;99.90;;;;;;5052344;28;20172;-65
2023/03/14 08:07:42;;;;;;;1.83;1.30;;;13.70;99.90;;;;;;5050261;28;20728;-65
2023/03/14 08:10:09;;;;;;;3.80;1.50;;;13.80;99.90;;;;;;5053165;28;20206;-65
2023/03/14 08:12:34;;;;;;;2.30;1.53;;;13.70;99.90;;;;;;5059055;28;20187;-64
2023/03/14 08:15:00;;;;;;;2.50;1.40;;;13.70;99.90;;;;;;5057175;28;20969;-65
2023/03/14 08:17:26;;;;;;;2.77;1.40;;;13.60;99.90;;;;;;5051171;28;20207;-65
2023/03/14 08:19:52;;;;;;;7.00;2.00;;;13.60;99.90;;;;;;5050813;28;20198;-65
2023/03/14 08:22:17;;;;;;;3.47;1.60;;;13.60;99.90;;;;;;5050556;28;20762;-65
2023/03/14 08:24:43;;;;;;;4.93;1.60;;;13.50;99.90;;;;;;5053953;28;20187;-65
2023/03/14 08:27:08;;;;;;;1.90;1.27;;;13.60;99.90;;;;;;5050124;28;20200;-65
2023/03/14 08:29:34;;;;;;;1.63;1.20;;;13.30;99.90;;;;;;5055354;28;20534;-65
2023/03/14 08:31:59;;;;;;;3.10;1.40;;;13.10;99.90;;;;;;5055397;28;20199;-65
2023/03/14 08:34:25;;;;;;;2.20;1.60;;;13.10;99.90;;;;;;5058228;28;20171;-65
2023/03/14 08:36:50;;;;;;;1.83;1.30;;;13.00;99.90;;;;;;5052328;28;20211;-65
2023/03/14 08:39:16;;;;;;;7.60;1.53;;;13.20;99.90;;;;;;5049417;28;20291;-65
2023/03/14 08:41:43;;;;;;;2.70;1.23;;;13.10;99.90;;;;;;5054439;28;20171;-65
2023/03/14 08:44:11;;;;;;;3.03;1.40;;;13.10;99.90;;;;;;5047636;28;20526;-65
2023/03/14 08:46:37;;;;;;;2.40;1.50;;;13.20;99.90;;;;;;5056151;28;20942;-65
2023/03/14 08:49:03;;;;;;;1.67;1.27;;;13.30;99.90;;;;;;5049952;28;20531;-65
2023/03/14 08:51:28;;;;;;;3.43;1.40;;;13.40;99.90;;;;;;5055364;28;20442;-65
2023/03/14 08:53:54;;;;;;;1.80;1.33;;;13.50;99.90;;;;;;5051756;28;20503;-65
2023/03/14 08:56:19;;;;;;;2.37;1.27;;;13.50;99.90;;;;;;5050900;28;20703;-65
2023/03/14 08:58:45;;;;;;;2.10;1.20;;;13.50;99.90;;;;;;5052432;28;20171;-65
2023/03/14 09:01:11;;;;;;;2.67;1.57;;;13.50;99.90;;;;;;5053440;28;20259;-65
2023/03/14 09:03:37;;;;;;;2.67;1.60;;;13.60;99.90;;;;;;5052654;28;20205;-65
2023/03/14 09:06:08;;;;;;;2.53;1.30;;;13.60;99.90;;;;;;5051494;28;20430;-65
2023/03/14 09:08:34;;;;;;;2.37;1.30;;;13.60;99.90;;;;;;5049115;28;20438;-65
2023/03/14 09:11:00;;;;;;;2.10;1.40;;;13.60;99.90;;;;;;5052916;28;21064;-65
2023/03/14 09:13:26;;;;;;;2.00;1.30;;;13.60;99.90;;;;;;5054088;28;20427;-65
2023/03/14 09:15:55;;;;;;;2.33;1.27;;;13.60;99.90;;;;;;5056140;28;20422;-65
2023/03/14 09:18:22;;;;;;;4.00;1.50;;;13.70;99.90;;;;;;5046952;28;20209;-65
2023/03/14 09:20:48;;;;;;;2.67;1.40;;;13.70;99.90;;;;;;5048167;28;20458;-65
2023/03/14 09:23:13;;;;;;;4.00;1.60;;;13.80;99.90;;;;;;5049982;28;20464;-65
2023/03/14 09:25:39;;;;;;;2.90;1.40;;;13.80;99.90;;;;;;5047915;28;20606;-66
2023/03/14 09:28:05;;;;;;;2.10;1.30;;;13.90;99.90;;;;;;5055417;28;20656;-65
2023/03/14 09:30:30;;;;;;;1.70;1.30;;;14.10;99.90;;;;;;5051935;28;20196;-65
2023/03/14 09:32:57;;;;;;;2.27;1.43;;;14.10;99.90;;;;;;5052828;28;20279;-65
2023/03/14 09:35:23;;;;;;;2.10;1.23;;;14.00;99.90;;;;;;5050658;28;20548;-65
2023/03/14 09:37:49;;;;;;;2.93;1.30;;;14.00;99.90;;;;;;5050992;28;20547;-65
2023/03/14 09:40:19;;;;;;;3.67;1.53;;;14.00;99.90;;;;;;5055313;28;20528;-65
2023/03/14 09:42:55;;;;;;;2.67;1.40;;;13.90;99.90;;;;;;5051714;28;20183;-65
2023/03/14 09:45:28;;;;;;;4.37;1.33;;;13.80;99.90;;;;;;5049560;28;20545;-65
2023/03/14 09:47:56;;;;;;;3.20;1.50;;;13.80;99.90;;;;;;5049290;28;20475;-66
2023/03/14 09:50:23;;;;;;;5.13;1.50;;;13.80;99.90;;;;;;5051005;28;20476;-66
2023/03/14 09:52:55;;;;;;;1.70;1.20;;;13.70;99.90;;;;;;5051167;28;20422;-65
2023/03/14 09:55:22;;;;;;;2.13;1.27;;;13.60;99.90;;;;;;5056544;28;20437;-65
2023/03/14 09:57:59;;;;;;;2.63;1.70;;;13.70;99.90;;;;;;5049259;28;21007;-65
2023/03/14 10:00:31;;;;;;;3.00;1.63;;;13.80;99.90;;;;;;5050967;28;20445;-66
2023/03/14 10:03:19;;;;;;;3.60;1.37;;;13.80;99.90;;;;;;5051071;28;20425;-65
2023/03/14 10:05:45;;;;;;;1.80;1.30;;;14.00;99.90;;;;;;5050485;28;20433;-65
2023/03/14 10:08:12;;;;;;;2.30;1.30;;;14.20;99.90;;;;;;5049906;28;20495;-65
2023/03/14 10:10:37;;;;;;;1.93;1.20;;;14.10;99.90;;;;;;5051486;28;20289;-65
2023/03/14 10:13:09;;;;;;;3.73;1.27;;;13.80;99.90;;;;;;5051181;28;20508;-65
2023/03/14 10:15:37;;;;;;;1.50;1.20;;;13.60;99.90;;;;;;5047784;28;20187;-65
2023/03/14 10:18:11;;;;;;;1.70;1.20;;;13.70;99.90;;;;;;5045940;28;20839;-65
2023/03/14 10:20:43;;;;;;;2.50;1.20;;;13.70;99.90;;;;;;5052334;28;20426;-66
2023/03/14 10:23:12;;;;;;;4.70;1.40;;;13.60;99.90;;;;;;5050341;28;20434;-66
2023/03/14 10:25:44;;;;;;;1.93;1.17;;;13.50;99.90;;;;;;5050448;28;20881;-66
2023/03/14 10:28:27;;;;;;;1.60;1.20;;;13.50;99.90;;;;;;5046844;28;20962;-65
2023/03/14 10:30:53;;;;;;;1.80;1.00;;;13.30;99.90;;;;;;5044851;28;20969;-65
2023/03/14 10:33:26;;;;;;;1.80;1.20;;;13.30;99.90;;;;;;5052173;28;20437;-66
2023/03/14 10:35:57;;;;;;;1.87;1.20;;;13.20;99.90;;;;;;5049067;28;20191;-65
2023/03/14 10:38:29;;;;;;;1.77;1.30;;;13.30;99.90;;;;;;5055821;28;20471;-66
2023/03/14 10:40:56;;;;;;;2.03;1.10;;;13.30;99.90;;;;;;5049324;28;20440;-65
2023/03/14 10:43:35;;;;;;;5.73;1.30;;;13.30;99.90;;;;;;5049669;28;20552;-65
2023/03/14 10:46:23;;;;;;;2.70;1.10;;;13.20;99.90;;;;;;5048985;28;20437;-65
2023/03/14 10:48:49;;;;;;;1.80;1.20;;;13.00;99.90;;;;;;5048182;28;20508;-65
2023/03/14 10:51:17;;;;;;;2.57;1.10;;;13.00;99.90;;;;;;5051382;28;20433;-66
2023/03/14 10:53:46;;;;;;;1.50;1.00;;;12.90;99.90;;;;;;5050802;28;20431;-66
2023/03/14 10:56:20;;;;;;;2.17;1.10;;;12.80;99.90;;;;;;5049138;28;20514;-66
2023/03/14 10:58:52;;;;;;;1.90;1.10;;;12.70;99.90;;;;;;5051752;28;20418;-66
2023/03/14 11:01:48;;;;;;;1.73;1.00;;;12.80;99.90;;;;;;5055031;28;20437;-66
2023/03/14 11:04:43;;;;;;;2.73;1.10;;;12.60;99.90;;;;;;5054835;28;20872;-65
2023/03/14 11:07:11;;;;;;;1.67;1.20;;;12.60;99.90;;;;;;5050259;28;20462;-65
2023/03/14 11:09:46;;;;;;;1.87;1.20;;;12.30;99.90;;;;;;5048849;28;20508;-65
2023/03/14 11:12:20;;;;;;;2.57;1.10;;;12.30;99.90;;;;;;5052763;28;21007;-66
2023/03/14 11:14:54;;;;;;;1.80;1.20;;;12.30;99.90;;;;;;5051186;28;20425;-66
2023/03/14 11:18:12;;;;;;;1.50;0.90;;;12.20;99.90;;;;;;5050809;28;20610;-66
2023/03/14 11:21:28;;;;;;;1.87;1.00;;;12.00;99.90;;;;;;5052403;28;20442;-65
2023/03/14 11:24:13;;;;;;;2.40;1.30;;;11.90;99.90;;;;;;4997307;28;20448;-66
2023/03/14 11:26:57;;;;;;;3.90;1.60;;;11.80;99.90;;;;;;5000325;28;20479;-66
2023/03/14 11:29:34;;;;;;;1.50;1.00;;;11.70;99.90;;;;;;5039541;28;20448;-66
2023/03/14 11:32:03;;;;;;;3.17;1.27;;;11.80;99.90;;;;;;5055471;28;20430;-66
2023/03/14 11:34:38;;;;;;;1.50;1.10;;;12.10;99.90;;;;;;5058910;28;20445;-66
2023/03/14 11:37:16;;;;;;;2.83;1.30;;;12.10;99.90;;;;;;5059491;28;20797;-66
2023/03/14 11:39:51;;;;;;;1.80;1.30;;;11.90;99.90;;;;;;5048797;28;20437;-66
2023/03/14 11:42:17;;;;;;;2.27;1.50;;;11.70;99.90;;;;;;5054050;28;20425;-66
2023/03/14 11:44:47;;;;;;;1.80;1.40;;;11.60;99.90;;;;;;5051558;28;20433;-66
2023/03/14 11:47:21;;;;;;;1.87;1.50;;;11.30;99.90;;;;;;5056651;28;20572;-66
2023/03/14 11:50:15;;;;;;;3.93;1.90;;;11.30;99.90;;;;;;5051389;28;20445;-66
2023/03/14 11:52:50;;;;;;;1.90;1.47;;;11.30;99.90;;;;;;5049488;28;20433;-66
2023/03/14 11:55:20;;;;;;;3.50;1.70;;;11.20;99.90;;;;;;5056574;28;20494;-66
2023/03/14 11:57:49;;;;;;;2.33;1.53;;;11.20;99.90;;;;;;5054145;28;21031;-66
2023/03/14 12:00:24;;;;;;;1.93;1.60;;;10.90;99.90;;;;;;5051431;28;20430;-66
2023/03/14 12:03:02;;;;;;;2.47;1.83;;;10.90;99.90;;;;;;5052983;28;20420;-66
2023/03/14 12:05:46;;;;;;;1.70;1.30;;;10.80;99.90;;;;;;5054566;28;20998;-66
2023/03/14 12:08:38;;;;;;;2.00;1.50;;;10.90;99.90;;;;;;5057731;28;20528;-66
2023/03/14 12:11:18;;;;;;;2.13;1.50;;;10.70;99.90;;;;;;5056670;28;20515;-66
2023/03/14 12:13:48;;;;;;;4.93;3.33;;;10.70;99.90;;;;;;5056252;28;21038;-66
2023/03/14 12:16:23;;;;;;;1.87;1.53;;;10.80;99.90;;;;;;5056490;28;21081;-66
2023/03/14 12:18:49;;;;;;;4.43;2.03;;;10.70;99.90;;;;;;5049980;28;20835;-66
2023/03/14 12:21:15;;;;;;;3.50;1.57;;;10.90;99.90;;;;;;5056255;28;21387;-66
2023/03/14 12:23:44;;;;;;;3.03;1.63;;;11.10;99.90;;;;;;5057783;28;20528;-66
2023/03/14 12:26:14;;;;;;;3.00;1.60;;;11.30;99.90;;;;;;5054389;28;20437;-66
2023/03/14 12:29:14;;;;;;;3.40;1.77;;;11.40;99.90;;;;;;5051147;28;20513;-66
2023/03/14 12:32:06;;;;;;;2.00;1.60;;;11.30;99.90;;;;;;5058261;28;20469;-66
2023/03/14 12:34:41;;;;;;;2.50;1.70;;;11.80;99.90;;;;;;5054778;28;20426;-66
2023/03/14 12:37:22;;;;;;;2.30;1.87;;;12.40;99.90;;;;;;5055171;28;20552;-66
2023/03/14 12:39:57;;;;;;;3.07;1.80;;;12.90;99.90;;;;;;5050934;28;20796;-66
2023/03/14 12:42:28;;;;;;;2.27;1.70;;;14.10;99.90;;;;;;5054908;28;21000;-66
2023/03/14 12:45:25;;;;;;;2.23;1.70;;;15.60;99.90;;;;;;5049177;28;20418;-65
2023/03/14 12:48:07;;;;;;;2.67;1.97;;;16.60;99.90;;;;;;5054333;28;20452;-65
2023/03/14 12:50:41;;;;;;;2.77;1.83;;;16.70;99.90;;;;;;5049181;28;20442;-65
2023/03/14 12:53:15;;;;;;;2.70;1.87;;;16.60;98.10;;;;;;5054730;28;20421;-65
2023/03/14 12:56:17;;;;;;;3.30;1.80;;;15.50;96.50;;;;;;5052606;28;20795;-66
2023/03/14 12:58:43;;;;;;;3.13;2.00;;;14.50;97.70;;;;;;5053997;28;20425;-66